sensor_id;sensor_type;location;lat;lon;timestamp;temperature;humidity
72919;SHT30;68407;55.694;26.994;2023-04-01T00:01:13;3.4;88.4
72919;SHT30;68407;55.694;26.994;2023-04-01T00:06:02;3.5;88.2
72919;SHT30;68407;55.694;26.994;2023-04-01T00:11:44;3.5;88.1
72919;SHT30;68407;55.694;26.994;2023-04-01T00:16:02;3.5;88.2
72919;SHT30;68407;55.694;26.994;2023-04-01T00:21:02;3.5;88.2
72919;SHT30;68407;55.694;26.994;2023-04-01T00:26:24;3.5;88.2
72919;SHT30;68407;55.694;26.994;2023-04-01T00:31:10;3.5;88.2
72919;SHT30;68407;55.694;26.994;2023-04-01T00:36:44;3.6;88.1
72919;SHT30;68407;55.694;26.994;2023-04-01T00:41:20;3.6;88.1
72919;SHT30;68407;55.694;26.994;2023-04-01T00:46:12;3.5;88.2
72919;SHT30;68407;55.694;26.994;2023-04-01T00:51:34;3.5;88.3
72919;SHT30;68407;55.694;26.994;2023-04-01T00:56:03;3.5;88.3
72919;SHT30;68407;55.694;26.994;2023-04-01T01:01:40;3.5;88.3
72919;SHT30;68407;55.694;26.994;2023-04-01T01:06:26;3.5;88.4
72919;SHT30;68407;55.694;26.994;2023-04-01T01:11:02;3.4;88.6
72919;SHT30;68407;55.694;26.994;2023-04-01T01:16:38;3.4;88.7
72919;SHT30;68407;55.694;26.994;2023-04-01T01:21:06;3.5;88.4
72919;SHT30;68407;55.694;26.994;2023-04-01T01:26:52;3.5;88.3
72919;SHT30;68407;55.694;26.994;2023-04-01T01:31:14;3.6;88.2
72919;SHT30;68407;55.694;26.994;2023-04-01T01:36:03;3.5;88.1
72919;SHT30;68407;55.694;26.994;2023-04-01T01:41:20;3.5;88.2
72919;SHT30;68407;55.694;26.994;2023-04-01T01:46:13;3.4;88.3
72919;SHT30;68407;55.694;26.994;2023-04-01T01:51:42;3.4;88.7
72919;SHT30;68407;55.694;26.994;2023-04-01T01:56:17;3.5;88.6
72919;SHT30;68407;55.694;26.994;2023-04-01T02:01:19;3.6;88.3
72919;SHT30;68407;55.694;26.994;2023-04-01T02:06:44;3.6;88.4
72919;SHT30;68407;55.694;26.994;2023-04-01T02:11:14;3.6;88.3
72919;SHT30;68407;55.694;26.994;2023-04-01T02:16:28;3.5;88.4
72919;SHT30;68407;55.694;26.994;2023-04-01T02:21:27;3.6;88.5
72919;SHT30;68407;55.694;26.994;2023-04-01T02:26:20;3.6;88.5
72919;SHT30;68407;55.694;26.994;2023-04-01T02:31:42;3.6;88.4
72919;SHT30;68407;55.694;26.994;2023-04-01T02:36:13;3.7;88.2
72919;SHT30;68407;55.694;26.994;2023-04-01T02:41:26;3.6;88.2
72919;SHT30;68407;55.694;26.994;2023-04-01T02:46:02;3.6;88.6
72919;SHT30;68407;55.694;26.994;2023-04-01T02:51:26;3.7;88.4
72919;SHT30;68407;55.694;26.994;2023-04-01T02:56:42;3.8;88.3
72919;SHT30;68407;55.694;26.994;2023-04-01T03:01:02;3.8;88
72919;SHT30;68407;55.694;26.994;2023-04-01T03:06:26;3.8;88
72919;SHT30;68407;55.694;26.994;2023-04-01T03:11:26;3.7;88.1
72919;SHT30;68407;55.694;26.994;2023-04-01T03:16:26;3.8;88.1
72919;SHT30;68407;55.694;26.994;2023-04-01T03:21:42;3.8;88.2
72919;SHT30;68407;55.694;26.994;2023-04-01T03:26:02;3.8;88.1
72919;SHT30;68407;55.694;26.994;2023-04-01T03:31:26;3.8;88.1
72919;SHT30;68407;55.694;26.994;2023-04-01T03:36:34;3.7;88.4
72919;SHT30;68407;55.694;26.994;2023-04-01T03:41:26;3.7;88.6
72919;SHT30;68407;55.694;26.994;2023-04-01T03:46:42;3.7;88.6
72919;SHT30;68407;55.694;26.994;2023-04-01T03:51:06;3.7;88.6
72919;SHT30;68407;55.694;26.994;2023-04-01T03:56:26;3.8;88.4
72919;SHT30;68407;55.694;26.994;2023-04-01T04:01:26;3.9;88.2
72919;SHT30;68407;55.694;26.994;2023-04-01T04:06:27;3.9;88.2
72919;SHT30;68407;55.694;26.994;2023-04-01T04:11:36;3.9;88
72919;SHT30;68407;55.694;26.994;2023-04-01T04:16:18;3.9;88.1
72919;SHT30;68407;55.694;26.994;2023-04-01T04:21:26;3.9;88.4
72919;SHT30;68407;55.694;26.994;2023-04-01T04:26:16;3.8;88.3
72919;SHT30;68407;55.694;26.994;2023-04-01T04:31:26;3.8;88.7
72919;SHT30;68407;55.694;26.994;2023-04-01T04:36:42;3.8;88.6
72919;SHT30;68407;55.694;26.994;2023-04-01T04:41:00;3.8;88.7
72919;SHT30;68407;55.694;26.994;2023-04-01T04:46:26;3.7;89
72919;SHT30;68407;55.694;26.994;2023-04-01T04:51:24;3.8;89.1
72919;SHT30;68407;55.694;26.994;2023-04-01T04:56:26;3.6;89.3
72919;SHT30;68407;55.694;26.994;2023-04-01T05:01:42;3.5;89.7
72919;SHT30;68407;55.694;26.994;2023-04-01T05:06:13;3.5;89.9
72919;SHT30;68407;55.694;26.994;2023-04-01T05:11:26;3.5;89.9
72919;SHT30;68407;55.694;26.994;2023-04-01T05:16:26;3.5;89.8
72919;SHT30;68407;55.694;26.994;2023-04-01T05:21:26;3.4;89.8
72919;SHT30;68407;55.694;26.994;2023-04-01T05:26:28;3.3;90.1
72919;SHT30;68407;55.694;26.994;2023-04-01T05:31:02;3.3;90.4
72919;SHT30;68407;55.694;26.994;2023-04-01T05:36:43;3.4;90.6
72919;SHT30;68407;55.694;26.994;2023-04-01T05:41:30;3.6;90.2
72919;SHT30;68407;55.694;26.994;2023-04-01T05:46:40;3.7;89.5
72919;SHT30;68407;55.694;26.994;2023-04-01T05:51:20;3.7;89
72919;SHT30;68407;55.694;26.994;2023-04-01T05:56:02;3.5;89.1
72919;SHT30;68407;55.694;26.994;2023-04-01T06:01:12;3.5;89.6
72919;SHT30;68407;55.694;26.994;2023-04-01T06:06:32;3.6;89.7
72919;SHT30;68407;55.694;26.994;2023-04-01T06:11:50;3.7;89.6
72919;SHT30;68407;55.694;26.994;2023-04-01T06:16:21;3.8;89.1
72919;SHT30;68407;55.694;26.994;2023-04-01T06:21:19;4;89.1
72919;SHT30;68407;55.694;26.994;2023-04-01T06:26:14;4.1;88.6
72919;SHT30;68407;55.694;26.994;2023-04-01T06:31:35;4.2;88
72919;SHT30;68407;55.694;26.994;2023-04-01T06:36:43;4;87.8
72919;SHT30;68407;55.694;26.994;2023-04-01T06:41:23;3.9;88.7
72919;SHT30;68407;55.694;26.994;2023-04-01T06:46:15;4;88.8
72919;SHT30;68407;55.694;26.994;2023-04-01T06:51:21;4;88.8
72919;SHT30;68407;55.694;26.994;2023-04-01T06:56:32;3.9;89
72919;SHT30;68407;55.694;26.994;2023-04-01T07:01:44;4.1;89
72919;SHT30;68407;55.694;26.994;2023-04-01T07:06:03;4.1;88.4
72919;SHT30;68407;55.694;26.994;2023-04-01T07:11:11;4.1;88.6
72919;SHT30;68407;55.694;26.994;2023-04-01T07:16:05;4.1;88.6
72919;SHT30;68407;55.694;26.994;2023-04-01T07:21:17;4.1;88.8
72919;SHT30;68407;55.694;26.994;2023-04-01T07:26:43;4.2;88.8
72919;SHT30;68407;55.694;26.994;2023-04-01T07:31:15;4.3;88.6
72919;SHT30;68407;55.694;26.994;2023-04-01T07:36:13;4.5;88.4
72919;SHT30;68407;55.694;26.994;2023-04-01T07:41:22;4.4;88.1
72919;SHT30;68407;55.694;26.994;2023-04-01T07:46:37;4.4;88.4
72919;SHT30;68407;55.694;26.994;2023-04-01T07:51:43;4.3;88.6
72919;SHT30;68407;55.694;26.994;2023-04-01T07:56:22;4.4;88.6
72919;SHT30;68407;55.694;26.994;2023-04-01T08:01:13;4.5;88.5
72919;SHT30;68407;55.694;26.994;2023-04-01T08:06:03;4.5;88.2
72919;SHT30;68407;55.694;26.994;2023-04-01T08:11:36;4.7;88.3
72919;SHT30;68407;55.694;26.994;2023-04-01T08:16:44;4.8;87.9
72919;SHT30;68407;55.694;26.994;2023-04-01T08:21:21;4.8;87.8
72919;SHT30;68407;55.694;26.994;2023-04-01T08:26:23;4.8;87.9
72919;SHT30;68407;55.694;26.994;2023-04-01T08:31:29;4.8;87.9
72919;SHT30;68407;55.694;26.994;2023-04-01T08:36:31;4.8;88.1
72919;SHT30;68407;55.694;26.994;2023-04-01T08:41:45;4.9;87.9
72919;SHT30;68407;55.694;26.994;2023-04-01T08:46:04;5.1;87.3
72919;SHT30;68407;55.694;26.994;2023-04-01T08:51:45;4.9;87.3
72919;SHT30;68407;55.694;26.994;2023-04-01T08:56:10;4.8;87.6
72919;SHT30;68407;55.694;26.994;2023-04-01T09:01:34;4.8;88.1
72919;SHT30;68407;55.694;26.994;2023-04-01T09:06:45;5;87.8
72919;SHT30;68407;55.694;26.994;2023-04-01T09:11:26;5.2;87.4
72919;SHT30;68407;55.694;26.994;2023-04-01T09:16:15;5.3;86.8
72919;SHT30;68407;55.694;26.994;2023-04-01T09:21:24;5.1;86.8
72919;SHT30;68407;55.694;26.994;2023-04-01T09:26:38;5.1;87.4
72919;SHT30;68407;55.694;26.994;2023-04-01T09:31:48;5.3;86.9
72919;SHT30;68407;55.694;26.994;2023-04-01T09:36:24;5.3;86.9
72919;SHT30;68407;55.694;26.994;2023-04-01T09:41:23;5.1;87.4
72919;SHT30;68407;55.694;26.994;2023-04-01T09:46:23;5.2;87.8
72919;SHT30;68407;55.694;26.994;2023-04-01T09:51:35;5.3;87.5
72919;SHT30;68407;55.694;26.994;2023-04-01T09:56:58;5.5;87.4
72919;SHT30;68407;55.694;26.994;2023-04-01T10:01:43;5.6;86.4
72919;SHT30;68407;55.694;26.994;2023-04-01T10:06:09;5.7;86.2
72919;SHT30;68407;55.694;26.994;2023-04-01T10:11:28;5.7;86.2
72919;SHT30;68407;55.694;26.994;2023-04-01T10:16:37;5.8;86.1
72919;SHT30;68407;55.694;26.994;2023-04-01T10:21:49;5.9;85.9
72919;SHT30;68407;55.694;26.994;2023-04-01T10:26:38;5.8;86
72919;SHT30;68407;55.694;26.994;2023-04-01T10:31:25;5.5;86.6
72919;SHT30;68407;55.694;26.994;2023-04-01T10:36:35;5.4;87.3
72919;SHT30;68407;55.694;26.994;2023-04-01T10:41:36;5.5;87.6
72919;SHT30;68407;55.694;26.994;2023-04-01T10:47:17;5.7;87.6
72919;SHT30;68407;55.694;26.994;2023-04-01T10:51:44;6;87.3
72919;SHT30;68407;55.694;26.994;2023-04-01T10:56:34;6.1;86
72919;SHT30;68407;55.694;26.994;2023-04-01T11:01:22;6.3;86
72919;SHT30;68407;55.694;26.994;2023-04-01T11:07:41;6.5;84.7
72919;SHT30;68407;55.694;26.994;2023-04-01T11:12:03;6.6;84.3
72919;SHT30;68407;55.694;26.994;2023-04-01T11:16:37;6.5;84.5
72919;SHT30;68407;55.694;26.994;2023-04-01T11:21:30;6.5;84.6
72919;SHT30;68407;55.694;26.994;2023-04-01T11:26:21;6.4;84.8
72919;SHT30;68407;55.694;26.994;2023-04-01T11:31:35;6.5;84.5
72919;SHT30;68407;55.694;26.994;2023-04-01T11:36:43;6.5;84.2
72919;SHT30;68407;55.694;26.994;2023-04-01T11:41:34;6.2;85
72919;SHT30;68407;55.694;26.994;2023-04-01T11:46:11;6.2;85.8
72919;SHT30;68407;55.694;26.994;2023-04-01T11:51:22;6.2;85.9
72919;SHT30;68407;55.694;26.994;2023-04-01T11:56:38;6.1;85.8
72919;SHT30;68407;55.694;26.994;2023-04-01T12:01:44;5.9;86.5
72919;SHT30;68407;55.694;26.994;2023-04-01T12:06:19;6;86.8
72919;SHT30;68407;55.694;26.994;2023-04-01T12:11:21;5.8;86.9
72919;SHT30;68407;55.694;26.994;2023-04-01T12:16:23;5.9;87.3
72919;SHT30;68407;55.694;26.994;2023-04-01T12:21:34;5.9;87.1
72919;SHT30;68407;55.694;26.994;2023-04-01T12:26:43;5.9;87.4
72919;SHT30;68407;55.694;26.994;2023-04-01T12:31:34;5.9;87.4
72919;SHT30;68407;55.694;26.994;2023-04-01T12:36:23;5.8;87.5
72919;SHT30;68407;55.694;26.994;2023-04-01T12:41:21;5.8;87.7
72919;SHT30;68407;55.694;26.994;2023-04-01T12:46:31;5.7;87.9
72919;SHT30;68407;55.694;26.994;2023-04-01T12:51:50;5.6;88.1
72919;SHT30;68407;55.694;26.994;2023-04-01T12:56:36;5.5;88.4
72919;SHT30;68407;55.694;26.994;2023-04-01T13:01:08;5.4;88.6
72919;SHT30;68407;55.694;26.994;2023-04-01T13:06:24;5.5;88.8
72919;SHT30;68407;55.694;26.994;2023-04-01T13:11:27;5.6;88.5
72919;SHT30;68407;55.694;26.994;2023-04-01T13:16:43;5.8;88.4
72919;SHT30;68407;55.694;26.994;2023-04-01T13:21:36;5.9;87.9
72919;SHT30;68407;55.694;26.994;2023-04-01T13:26:13;5.9;87.9
72919;SHT30;68407;55.694;26.994;2023-04-01T13:31:25;6;88
72919;SHT30;68407;55.694;26.994;2023-04-01T13:36:35;6;87.5
72919;SHT30;68407;55.694;26.994;2023-04-01T13:41:47;5.9;87.6
72919;SHT30;68407;55.694;26.994;2023-04-01T13:46:39;5.8;87.8
72919;SHT30;68407;55.694;26.994;2023-04-01T13:52:03;5.9;87.8
72919;SHT30;68407;55.694;26.994;2023-04-01T13:56:07;5.8;87.9
72919;SHT30;68407;55.694;26.994;2023-04-01T14:01:36;5.6;88.1
72919;SHT30;68407;55.694;26.994;2023-04-01T14:06:51;5.6;88.3
72919;SHT30;68407;55.694;26.994;2023-04-01T14:11:32;5.6;88.4
72919;SHT30;68407;55.694;26.994;2023-04-01T14:16:23;5.6;88.7
72919;SHT30;68407;55.694;26.994;2023-04-01T14:21:07;5.6;88.7
72919;SHT30;68407;55.694;26.994;2023-04-01T14:26:22;5.6;88.5
72919;SHT30;68407;55.694;26.994;2023-04-01T14:31:38;5.6;88.9
72919;SHT30;68407;55.694;26.994;2023-04-01T14:36:50;5.6;88.9
72919;SHT30;68407;55.694;26.994;2023-04-01T14:41:17;5.5;89.1
72919;SHT30;68407;55.694;26.994;2023-04-01T14:46:32;5.4;89.5
72919;SHT30;68407;55.694;26.994;2023-04-01T14:51:22;5.4;89.8
72919;SHT30;68407;55.694;26.994;2023-04-01T14:56:43;5.4;89.7
72919;SHT30;68407;55.694;26.994;2023-04-01T15:01:47;5.4;89.8
72919;SHT30;68407;55.694;26.994;2023-04-01T15:06:14;5.4;89.9
72919;SHT30;68407;55.694;26.994;2023-04-01T15:11:32;5.3;90
72919;SHT30;68407;55.694;26.994;2023-04-01T15:16:23;5.3;90.1
72919;SHT30;68407;55.694;26.994;2023-04-01T15:21:06;5.3;90.1
72919;SHT30;68407;55.694;26.994;2023-04-01T15:26:49;5.2;90.4
72919;SHT30;68407;55.694;26.994;2023-04-01T15:31:44;5.2;90.6
72919;SHT30;68407;55.694;26.994;2023-04-01T15:36:25;5.2;90.4
72919;SHT30;68407;55.694;26.994;2023-04-01T15:41:45;5.1;90.5
72919;SHT30;68407;55.694;26.994;2023-04-01T15:46:41;5.1;90.8
72919;SHT30;68407;55.694;26.994;2023-04-01T15:51:45;5;90.8
72919;SHT30;68407;55.694;26.994;2023-04-01T15:56:25;5;90.9
72919;SHT30;68407;55.694;26.994;2023-04-01T16:01:44;4.9;91
72919;SHT30;68407;55.694;26.994;2023-04-01T16:06:24;4.9;91
72919;SHT30;68407;55.694;26.994;2023-04-01T16:11:34;4.9;91.1
72919;SHT30;68407;55.694;26.994;2023-04-01T16:16:48;4.9;91
72919;SHT30;68407;55.694;26.994;2023-04-01T16:21:12;4.8;91.1
72919;SHT30;68407;55.694;26.994;2023-04-01T16:26:28;4.8;91.2
72919;SHT30;68407;55.694;26.994;2023-04-01T16:31:04;4.8;91.3
72919;SHT30;68407;55.694;26.994;2023-04-01T16:36:35;4.8;91.2
72919;SHT30;68407;55.694;26.994;2023-04-01T16:41:47;4.7;91.2
72919;SHT30;68407;55.694;26.994;2023-04-01T16:46:26;4.7;91.3
72919;SHT30;68407;55.694;26.994;2023-04-01T16:51:13;4.6;91.3
72919;SHT30;68407;55.694;26.994;2023-04-01T16:56:10;4.6;91.4
72919;SHT30;68407;55.694;26.994;2023-04-01T17:01:43;4.5;91.6
72919;SHT30;68407;55.694;26.994;2023-04-01T17:06:44;4.5;91.6
72919;SHT30;68407;55.694;26.994;2023-04-01T17:11:14;4.5;91.6
72919;SHT30;68407;55.694;26.994;2023-04-01T17:16:26;4.4;91.7
72919;SHT30;68407;55.694;26.994;2023-04-01T17:21:04;4.4;91.7
72919;SHT30;68407;55.694;26.994;2023-04-01T17:26:32;4.4;91.8
72919;SHT30;68407;55.694;26.994;2023-04-01T17:31:46;4.4;91.7
72919;SHT30;68407;55.694;26.994;2023-04-01T17:36:15;4.4;91.6
72919;SHT30;68407;55.694;26.994;2023-04-01T17:41:21;4.4;91.5
72919;SHT30;68407;55.694;26.994;2023-04-01T17:46:38;4.3;91.6
72919;SHT30;68407;55.694;26.994;2023-04-01T17:51:19;4.3;91.7
72919;SHT30;68407;55.694;26.994;2023-04-01T17:56:47;4.3;91.6
72919;SHT30;68407;55.694;26.994;2023-04-01T18:01:40;4.2;91.5
72919;SHT30;68407;55.694;26.994;2023-04-01T18:06:11;4.2;91.6
72919;SHT30;68407;55.694;26.994;2023-04-01T18:11:05;4.2;91.5
72919;SHT30;68407;55.694;26.994;2023-04-01T18:16:37;4.2;91.5
72919;SHT30;68407;55.694;26.994;2023-04-01T18:21:45;4.2;91.4
72919;SHT30;68407;55.694;26.994;2023-04-01T18:26:33;4.2;91.4
72919;SHT30;68407;55.694;26.994;2023-04-01T18:31:20;4.1;91.4
72919;SHT30;68407;55.694;26.994;2023-04-01T18:36:13;4.1;91.5
72919;SHT30;68407;55.694;26.994;2023-04-01T18:41:34;4.1;91.4
72919;SHT30;68407;55.694;26.994;2023-04-01T18:46:46;4.1;91.4
72919;SHT30;68407;55.694;26.994;2023-04-01T18:51:35;4.1;91.5
72919;SHT30;68407;55.694;26.994;2023-04-01T18:56:23;4.1;91.4
72919;SHT30;68407;55.694;26.994;2023-04-01T19:01:05;4.1;91.4
72919;SHT30;68407;55.694;26.994;2023-04-01T19:06:32;4.1;91.5
72919;SHT30;68407;55.694;26.994;2023-04-01T19:11:44;4;91.5
72919;SHT30;68407;55.694;26.994;2023-04-01T19:16:21;4.1;91.5
72919;SHT30;68407;55.694;26.994;2023-04-01T19:21:27;4;91.6
72919;SHT30;68407;55.694;26.994;2023-04-01T19:26:11;4.1;91.6
72919;SHT30;68407;55.694;26.994;2023-04-01T19:31:22;4;91.6
72919;SHT30;68407;55.694;26.994;2023-04-01T19:36:45;4;91.7
72919;SHT30;68407;55.694;26.994;2023-04-01T19:41:36;4;91.7
72919;SHT30;68407;55.694;26.994;2023-04-01T19:46:19;4;91.7
72919;SHT30;68407;55.694;26.994;2023-04-01T19:51:12;3.9;91.8
72919;SHT30;68407;55.694;26.994;2023-04-01T19:56:34;4;91.8
72919;SHT30;68407;55.694;26.994;2023-04-01T20:01:43;4;91.9
72919;SHT30;68407;55.694;26.994;2023-04-01T20:06:25;4;91.9
72919;SHT30;68407;55.694;26.994;2023-04-01T20:11:14;4;91.8
72919;SHT30;68407;55.694;26.994;2023-04-01T20:16:01;4;91.9
72919;SHT30;68407;55.694;26.994;2023-04-01T20:21:34;4;91.9
72919;SHT30;68407;55.694;26.994;2023-04-01T20:26:41;4;91.8
72919;SHT30;68407;55.694;26.994;2023-04-01T20:31:31;4;91.8
72919;SHT30;68407;55.694;26.994;2023-04-01T20:36:11;4;91.8
72919;SHT30;68407;55.694;26.994;2023-04-01T20:41:02;4;91.8
72919;SHT30;68407;55.694;26.994;2023-04-01T20:46:13;4;91.8
72919;SHT30;68407;55.694;26.994;2023-04-01T20:51:43;4;91.9
72919;SHT30;68407;55.694;26.994;2023-04-01T20:56:46;4;91.9
72919;SHT30;68407;55.694;26.994;2023-04-01T21:01:13;4;91.8
72919;SHT30;68407;55.694;26.994;2023-04-01T21:06:39;4.1;91.7
72919;SHT30;68407;55.694;26.994;2023-04-01T21:11:35;4.1;91.6
72919;SHT30;68407;55.694;26.994;2023-04-01T21:16:44;4.1;91.5
72919;SHT30;68407;55.694;26.994;2023-04-01T21:21:37;4.1;91.4
72919;SHT30;68407;55.694;26.994;2023-04-01T21:26:04;4.1;91.3
72919;SHT30;68407;55.694;26.994;2023-04-01T21:31:04;4.2;91.3
72919;SHT30;68407;55.694;26.994;2023-04-01T21:36:35;4.2;91.3
72919;SHT30;68407;55.694;26.994;2023-04-01T21:41:47;4.2;91.2
72919;SHT30;68407;55.694;26.994;2023-04-01T21:46:39;4.2;91.2
72919;SHT30;68407;55.694;26.994;2023-04-01T21:52:09;4.2;91.1
72919;SHT30;68407;55.694;26.994;2023-04-01T21:56:17;4.2;91
72919;SHT30;68407;55.694;26.994;2023-04-01T22:01:04;4.2;91
72919;SHT30;68407;55.694;26.994;2023-04-01T22:06:41;4.2;91
72919;SHT30;68407;55.694;26.994;2023-04-01T22:11:34;4.2;90.9
72919;SHT30;68407;55.694;26.994;2023-04-01T22:16:20;4.2;91
72919;SHT30;68407;55.694;26.994;2023-04-01T22:21:03;4.2;91
72919;SHT30;68407;55.694;26.994;2023-04-01T22:26:32;4.2;90.9
72919;SHT30;68407;55.694;26.994;2023-04-01T22:31:43;4.2;90.9
72919;SHT30;68407;55.694;26.994;2023-04-01T22:36:19;4.2;90.8
72919;SHT30;68407;55.694;26.994;2023-04-01T22:41:49;4.2;90.7
72919;SHT30;68407;55.694;26.994;2023-04-01T22:46:31;4.2;90.7
72919;SHT30;68407;55.694;26.994;2023-04-01T22:51:42;4.1;90.7
72919;SHT30;68407;55.694;26.994;2023-04-01T22:56:36;4.1;90.7
72919;SHT30;68407;55.694;26.994;2023-04-01T23:01:07;4.1;90.8
72919;SHT30;68407;55.694;26.994;2023-04-01T23:06:42;4.1;90.9
72919;SHT30;68407;55.694;26.994;2023-04-01T23:11:01;4.1;91
72919;SHT30;68407;55.694;26.994;2023-04-01T23:16:42;4.1;90.7
72919;SHT30;68407;55.694;26.994;2023-04-01T23:21:34;4.1;90.6
72919;SHT30;68407;55.694;26.994;2023-04-01T23:26:16;4;90.5
72919;SHT30;68407;55.694;26.994;2023-04-01T23:31:39;4;90.5
72919;SHT30;68407;55.694;26.994;2023-04-01T23:36:10;4;90.3
72919;SHT30;68407;55.694;26.994;2023-04-01T23:41:41;4;90.3
72919;SHT30;68407;55.694;26.994;2023-04-01T23:46:33;4;90.2
72919;SHT30;68407;55.694;26.994;2023-04-01T23:51:17;3.9;90.3
72919;SHT30;68407;55.694;26.994;2023-04-01T23:56:41;3.9;90.2
